createdAt,value
2022-09-02T00:02:24.468Z,70.57
2022-09-02T00:04:51.032Z,70.67
2022-09-02T00:07:17.484Z,70.69
2022-09-02T00:09:43.952Z,69.91
2022-09-02T00:12:11.112Z,71.81
2022-09-02T00:14:38.824Z,71.12
2022-09-02T00:17:05.793Z,71.77
2022-09-02T00:19:32.312Z,72.30
2022-09-02T00:22:00.202Z,72.31
2022-09-02T00:24:26.684Z,73.78
2022-09-02T00:26:56.463Z,72.11
2022-09-02T00:29:23.482Z,72.05
2022-09-02T00:31:50.025Z,71.62
2022-09-02T00:34:16.636Z,71.43
2022-09-02T00:36:43.105Z,70.57
2022-09-02T00:39:09.908Z,72.77
2022-09-02T00:41:38.012Z,71.46
2022-09-02T00:44:06.174Z,71.57
2022-09-02T00:46:33.208Z,69.57
2022-09-02T00:49:08.556Z,68.95
2022-09-02T00:51:46.319Z,68.48
2022-09-02T00:54:14.125Z,68.35
2022-09-02T00:56:42.084Z,68.64
2022-09-02T00:59:08.653Z,66.45
2022-09-02T01:01:35.244Z,67.37
2022-09-02T01:04:01.932Z,66.46
2022-09-02T01:06:32.871Z,67.10
2022-09-02T01:09:07.460Z,64.86
2022-09-02T01:11:45.006Z,66.56
2022-09-02T01:14:13.754Z,64.69
2022-09-02T01:16:44.763Z,64.85
2022-09-02T01:19:20.347Z,64.99
2022-09-02T01:21:47.842Z,65.67
2022-09-02T01:24:14.588Z,64.21
2022-09-02T01:26:41.074Z,63.65
2022-09-02T01:29:07.530Z,64.12
2022-09-02T01:31:34.372Z,63.40
2022-09-02T01:34:00.935Z,63.66
2022-09-02T01:36:27.393Z,64.18
2022-09-02T01:38:53.877Z,63.19
2022-09-02T01:41:20.509Z,63.03
2022-09-02T01:43:46.986Z,64.84
2022-09-02T01:46:13.544Z,63.21
2022-09-02T01:48:40.642Z,62.73
2022-09-02T01:51:07.586Z,62.74
2022-09-02T01:53:34.860Z,62.08
2022-09-02T01:56:01.302Z,62.97
2022-09-02T01:58:27.767Z,61.31
2022-09-02T02:00:54.295Z,62.09
2022-09-02T02:03:20.933Z,61.54
2022-09-02T02:05:47.567Z,62.62
2022-09-02T02:08:14.022Z,61.64
2022-09-02T02:10:41.829Z,61.15
2022-09-02T02:13:08.526Z,63.40
2022-09-02T02:15:37.004Z,62.14
2022-09-02T02:18:03.476Z,62.18
2022-09-02T02:20:29.955Z,61.51
2022-09-02T02:22:56.435Z,61.86
2022-09-02T02:25:22.944Z,61.39
2022-09-02T02:27:49.952Z,61.95
2022-09-02T02:30:17.064Z,60.45
2022-09-02T02:32:44.255Z,61.89
2022-09-02T02:35:11.445Z,61.23
2022-09-02T02:37:37.964Z,61.52
2022-09-02T02:40:05.508Z,62.32
2022-09-02T02:42:31.969Z,62.82
2022-09-02T02:44:58.689Z,61.20
2022-09-02T02:47:25.192Z,63.07
2022-09-02T02:49:51.693Z,63.11
2022-09-02T02:52:18.223Z,63.39
2022-09-02T02:54:44.744Z,63.95
2022-09-02T02:57:11.672Z,63.84
2022-09-02T02:59:38.189Z,63.50
2022-09-02T03:02:06.484Z,63.86
2022-09-02T03:04:33.761Z,65.07
2022-09-02T03:07:00.435Z,65.86
2022-09-02T03:09:26.891Z,66.03
2022-09-02T03:11:53.386Z,65.21
2022-09-02T03:14:19.888Z,66.52
2022-09-02T03:16:46.381Z,67.23
2022-09-02T03:19:14.263Z,66.88
2022-09-02T03:21:41.264Z,67.04
2022-09-02T03:24:08.823Z,66.99
2022-09-02T03:26:35.477Z,67.50
2022-09-02T03:29:02.082Z,66.69
2022-09-02T03:31:28.730Z,66.59
2022-09-02T03:33:55.619Z,67.81
2022-09-02T03:36:24.015Z,66.02
2022-09-02T03:38:50.651Z,67.65
2022-09-02T03:41:17.123Z,66.81
2022-09-02T03:43:43.574Z,67.24
2022-09-02T03:46:10.248Z,67.67
2022-09-02T03:48:36.901Z,67.40
2022-09-02T03:51:04.154Z,66.61
2022-09-02T03:53:30.764Z,67.92
2022-09-02T03:55:57.262Z,68.07
2022-09-02T03:58:23.901Z,68.49
2022-09-02T04:00:54.192Z,67.82
2022-09-02T04:03:21.357Z,67.85
2022-09-02T04:05:49.565Z,68.32
2022-09-02T04:08:16.276Z,68.75
2022-09-02T04:10:42.916Z,67.59
2022-09-02T04:13:09.423Z,69.63
2022-09-02T04:15:39.225Z,68.87
2022-09-02T04:18:05.761Z,67.57
2022-09-02T04:20:32.193Z,67.26
2022-09-02T04:22:58.701Z,68.21
2022-09-02T04:25:27.795Z,67.51
2022-09-02T04:27:54.403Z,68.25
2022-09-02T04:30:21.229Z,67.04
2022-09-02T04:32:47.687Z,69.36
2022-09-02T04:35:14.179Z,67.33
2022-09-02T04:37:41.714Z,65.65
2022-09-02T04:40:08.645Z,66.83
2022-09-02T04:42:35.898Z,65.94
2022-09-02T04:45:02.410Z,64.94
2022-09-02T04:47:28.922Z,66.02
2022-09-02T04:49:55.359Z,65.82
2022-09-02T04:52:21.858Z,64.17
2022-09-02T04:54:48.931Z,64.91
2022-09-02T04:57:15.392Z,65.98
2022-09-02T04:59:43.361Z,65.56
2022-09-02T05:02:10.698Z,65.36
2022-09-02T05:04:37.782Z,64.87
2022-09-02T05:07:04.433Z,66.44
2022-09-02T05:09:32.102Z,65.05
2022-09-02T05:11:58.626Z,63.77
2022-09-02T05:14:25.522Z,64.42
2022-09-02T05:16:55.142Z,62.92
2022-09-02T05:19:23.324Z,63.60
2022-09-02T05:21:51.137Z,65.23
2022-09-02T05:24:18.029Z,62.72
2022-09-02T05:26:44.833Z,63.04
2022-09-02T05:29:12.216Z,62.16
2022-09-02T05:31:40.411Z,61.78
2022-09-02T05:34:06.855Z,62.50
2022-09-02T05:36:33.318Z,60.92
2022-09-02T05:39:00.590Z,61.43
2022-09-02T05:41:27.901Z,60.38
2022-09-02T05:43:56.346Z,60.76
2022-09-02T05:46:24.367Z,61.03
2022-09-02T05:49:07.615Z,60.44
2022-09-02T05:51:44.074Z,59.96
2022-09-02T05:54:11.662Z,57.87
2022-09-02T05:56:45.211Z,59.78
2022-09-02T05:59:12.197Z,59.83
2022-09-02T06:01:38.748Z,59.10
2022-09-02T06:04:05.930Z,59.70
2022-09-02T06:06:32.989Z,57.77
2022-09-02T06:09:00.676Z,59.22
2022-09-02T06:11:28.806Z,57.06
2022-09-02T06:13:55.500Z,58.78
2022-09-02T06:16:22.923Z,57.13
2022-09-02T06:18:50.465Z,56.63
2022-09-02T06:21:17.882Z,54.87
2022-09-02T06:23:45.001Z,53.98
2022-09-02T06:26:12.879Z,55.12
2022-09-02T06:28:39.400Z,52.47
2022-09-02T06:31:09.952Z,53.59
2022-09-02T06:33:36.476Z,55.74
2022-09-02T06:36:05.430Z,55.11
2022-09-02T06:38:31.866Z,56.26
2022-09-02T06:40:58.330Z,54.21
2022-09-02T06:43:24.953Z,56.82
2022-09-02T06:45:51.450Z,55.41
2022-09-02T06:48:17.949Z,56.65
2022-09-02T06:50:45.445Z,53.44
2022-09-02T06:53:12.454Z,54.96
2022-09-02T06:55:39.706Z,54.74
2022-09-02T06:58:06.504Z,53.32
2022-09-02T07:00:35.519Z,53.46
2022-09-02T07:03:20.977Z,53.55
2022-09-02T07:05:47.465Z,54.84
2022-09-02T07:08:14.056Z,53.67
2022-09-02T07:10:40.988Z,53.73
2022-09-02T07:13:07.926Z,51.85
2022-09-02T07:15:34.917Z,50.11
2022-09-02T07:18:01.681Z,52.92
2022-09-02T07:20:28.203Z,52.87
2022-09-02T07:22:56.490Z,49.97
2022-09-02T07:25:23.366Z,50.50
2022-09-02T07:27:51.362Z,51.29
2022-09-02T07:30:18.103Z,49.81
2022-09-02T07:32:44.566Z,51.37
2022-09-02T07:35:11.093Z,53.54
2022-09-02T07:37:37.716Z,52.82
2022-09-02T07:40:05.330Z,53.73
2022-09-02T07:42:31.899Z,52.77
2022-09-02T07:44:58.425Z,51.39
2022-09-02T07:47:24.932Z,51.50
2022-09-02T07:52:38.220Z,52.33
2022-09-02T07:55:06.115Z,50.45
2022-09-02T07:57:32.587Z,49.70
2022-09-02T07:59:59.146Z,50.12
2022-09-02T08:02:25.670Z,49.92
2022-09-02T08:04:52.773Z,47.65
2022-09-02T08:07:24.210Z,48.48
2022-09-02T08:09:51.652Z,48.03
2022-09-02T08:12:20.230Z,46.23
2022-09-02T08:14:48.752Z,49.76
2022-09-02T08:17:15.557Z,48.25
2022-09-02T08:19:45.150Z,48.91
2022-09-02T08:22:11.640Z,48.29
2022-09-02T08:24:38.133Z,47.47
2022-09-02T08:27:05.597Z,48.22
2022-09-02T08:29:32.025Z,49.83
2022-09-02T08:31:58.501Z,50.68
2022-09-02T08:34:25.043Z,49.64
2022-09-02T08:36:56.185Z,51.73
2022-09-02T08:42:05.440Z,48.43
2022-09-02T08:44:35.331Z,47.09
2022-09-02T08:47:06.866Z,47.08
2022-09-02T08:49:35.306Z,49.70
2022-09-02T08:52:03.361Z,47.95
2022-09-02T08:54:35.906Z,45.80
2022-09-02T08:57:02.502Z,46.87
2022-09-02T08:59:30.858Z,47.42
2022-09-02T09:02:17.963Z,46.33
2022-09-02T09:04:59.876Z,47.52
2022-09-02T09:07:46.553Z,47.08
2022-09-02T09:10:22.176Z,44.10
2022-09-02T09:12:57.194Z,45.66
2022-09-02T09:15:29.579Z,46.77
2022-09-02T09:17:58.245Z,45.52
2022-09-02T09:20:29.062Z,47.88
2022-09-02T09:22:57.316Z,44.61
2022-09-02T09:25:29.789Z,46.21
2022-09-02T09:27:59.864Z,46.74
2022-09-02T09:30:27.112Z,45.99
2022-09-02T09:32:54.891Z,46.22
2022-09-02T09:35:21.964Z,45.81
2022-09-02T09:37:50.276Z,45.33
2022-09-02T09:40:25.861Z,46.88
2022-09-02T09:42:57.143Z,46.99
2022-09-02T09:45:23.842Z,45.07
2022-09-02T09:48:09.464Z,47.73
2022-09-02T09:50:35.948Z,45.90
2022-09-02T09:53:28.539Z,45.64
2022-09-02T09:55:56.273Z,46.41
2022-09-02T09:58:23.668Z,44.68
2022-09-02T10:00:51.767Z,47.68
2022-09-02T10:03:23.398Z,45.18
2022-09-02T10:05:53.340Z,44.69
2022-09-02T10:08:22.686Z,45.52
2022-09-02T10:10:57.583Z,43.08
2022-09-02T10:13:25.588Z,47.67
2022-09-02T10:16:01.531Z,43.43
2022-09-02T10:18:45.578Z,44.16
2022-09-02T10:21:16.578Z,43.67
2022-09-02T10:24:01.925Z,44.84
2022-09-02T10:26:36.130Z,42.95
2022-09-02T10:29:11.944Z,43.79
2022-09-02T10:31:56.925Z,41.60
2022-09-02T10:34:43.864Z,43.04
2022-09-02T10:37:21.193Z,43.85
2022-09-02T10:40:00.011Z,40.96
2022-09-02T10:42:29.769Z,41.00
2022-09-02T10:45:17.990Z,40.78
2022-09-02T10:50:23.990Z,41.72
2022-09-02T10:52:59.810Z,41.73
2022-09-02T10:55:26.319Z,42.02
2022-09-02T10:57:55.868Z,41.82
2022-09-02T11:00:23.188Z,41.33
2022-09-02T11:02:58.643Z,42.86
2022-09-02T11:05:29.629Z,39.85
2022-09-02T11:08:01.365Z,42.49
2022-09-02T11:10:32.621Z,40.32
2022-09-02T11:13:12.062Z,42.84
2022-09-02T11:15:41.556Z,45.06
2022-09-02T11:18:30.290Z,41.28
2022-09-02T11:21:01.060Z,41.40
2022-09-02T11:23:36.972Z,41.39
2022-09-02T11:26:22.427Z,41.93
2022-09-02T11:28:55.530Z,40.09
2022-09-02T11:31:39.238Z,37.79
2022-09-02T11:34:24.798Z,42.66
2022-09-02T11:36:51.542Z,37.52
2022-09-02T11:39:36.184Z,38.30
2022-09-02T11:42:12.706Z,40.05
2022-09-02T11:44:58.397Z,39.31
2022-09-02T11:47:46.024Z,41.71
2022-09-02T11:50:35.828Z,37.80
2022-09-02T11:53:12.553Z,39.91
2022-09-02T11:56:02.088Z,38.89
2022-09-02T11:58:45.846Z,40.57
2022-09-02T12:01:15.038Z,42.26
2022-09-02T12:04:15.861Z,38.58
2022-09-02T12:06:31.533Z,42.47
2022-09-02T12:08:59.451Z,40.50
2022-09-02T12:11:41.763Z,41.55
2022-09-02T12:14:11.944Z,40.96
2022-09-02T12:17:02.654Z,37.99
2022-09-02T12:19:42.767Z,38.27
2022-09-02T12:22:15.661Z,40.01
2022-09-02T12:25:08.226Z,38.24
2022-09-02T12:27:36.780Z,40.70
2022-09-02T12:30:09.564Z,38.64
2022-09-02T12:32:51.547Z,39.04
2022-09-02T12:35:34.957Z,39.32
2022-09-02T12:38:09.612Z,36.93
2022-09-02T12:40:54.810Z,38.38
2022-09-02T12:43:37.870Z,40.48
2022-09-02T12:46:17.417Z,38.31
2022-09-02T12:49:03.898Z,39.38
2022-09-02T12:51:49.173Z,37.24
2022-09-02T12:54:16.414Z,37.61
2022-09-02T12:56:49.638Z,42.70
2022-09-02T12:59:45.465Z,41.24
2022-09-02T13:02:31.698Z,41.70
2022-09-02T13:05:06.595Z,39.87
2022-09-02T13:07:51.953Z,39.81
2022-09-02T13:10:18.383Z,38.99
2022-09-02T13:12:55.466Z,40.02
2022-09-02T13:15:40.637Z,38.78
2022-09-02T13:18:07.641Z,38.75
2022-09-02T13:20:56.045Z,37.13
2022-09-02T13:23:41.312Z,39.39
2022-09-02T13:26:47.963Z,38.99
2022-09-02T13:29:11.800Z,35.88
2022-09-02T13:31:38.324Z,36.31
2022-09-02T13:34:08.170Z,34.95
2022-09-02T13:36:36.121Z,34.34
2022-09-02T13:39:24.230Z,35.75
2022-09-02T13:41:50.722Z,36.23
2022-09-02T13:44:24.554Z,37.63
2022-09-02T13:47:03.301Z,39.05
2022-09-02T13:49:37.821Z,36.52
2022-09-02T13:52:06.018Z,38.36
2022-09-02T13:54:34.607Z,36.72
2022-09-02T13:57:02.879Z,37.05
2022-09-02T13:59:40.253Z,37.08
2022-09-02T14:02:21.329Z,40.49
2022-09-02T14:04:50.304Z,41.45
2022-09-02T14:07:19.228Z,42.12
2022-09-02T14:09:45.998Z,43.28
2022-09-02T14:12:13.669Z,45.56
2022-09-02T14:14:41.583Z,46.24
2022-09-02T14:17:22.069Z,48.01
2022-09-02T14:19:49.038Z,45.96
2022-09-02T14:22:21.439Z,48.54
2022-09-02T14:24:48.092Z,48.44
2022-09-02T14:27:19.058Z,47.33
2022-09-02T14:29:46.488Z,50.05
2022-09-02T14:32:14.640Z,50.69
2022-09-02T14:34:42.715Z,51.25
2022-09-02T14:37:15.368Z,55.20
2022-09-02T14:39:52.984Z,55.63
2022-09-02T14:42:19.563Z,55.01
2022-09-02T14:44:48.801Z,54.92
2022-09-02T14:47:16.799Z,56.61
2022-09-02T14:49:52.440Z,57.55
2022-09-02T14:52:18.861Z,57.70
2022-09-02T14:54:48.486Z,58.63
2022-09-02T14:57:20.933Z,57.55
2022-09-02T14:59:51.066Z,57.86
2022-09-02T15:02:24.868Z,58.74
2022-09-02T15:04:51.383Z,60.44
2022-09-02T15:07:17.921Z,59.42
2022-09-02T15:09:46.008Z,58.00
2022-09-02T15:12:13.894Z,58.77
2022-09-02T15:14:46.982Z,58.79
2022-09-02T15:17:14.754Z,60.97
2022-09-02T15:19:41.240Z,61.41
2022-09-02T15:22:07.800Z,59.73
2022-09-02T15:24:34.494Z,63.10
2022-09-02T15:27:01.370Z,61.47
2022-09-02T15:29:29.053Z,61.06
2022-09-02T15:31:55.689Z,60.96
2022-09-02T15:34:26.173Z,60.42
2022-09-02T15:36:55.306Z,60.85
2022-09-02T15:39:22.923Z,59.97
2022-09-02T15:41:50.193Z,62.86
2022-09-02T15:44:17.526Z,60.62
2022-09-02T15:46:44.718Z,59.98
2022-09-02T15:49:12.612Z,61.52
2022-09-02T15:51:39.644Z,61.53
2022-09-02T15:54:07.686Z,61.19
2022-09-02T15:56:35.150Z,61.80
2022-09-02T15:59:02.948Z,62.33
2022-09-02T16:01:33.120Z,64.33
2022-09-02T16:04:01.445Z,65.08
2022-09-02T16:06:28.126Z,64.82
2022-09-02T16:08:55.485Z,63.62
2022-09-02T16:11:22.541Z,63.86
2022-09-02T16:13:49.725Z,64.64
2022-09-02T16:16:16.295Z,65.02
2022-09-02T16:18:43.364Z,64.69
2022-09-02T16:21:11.692Z,64.39
2022-09-02T16:23:38.431Z,65.33
2022-09-02T16:26:07.607Z,64.28
2022-09-02T16:28:34.981Z,64.73
2022-09-02T16:31:01.783Z,65.48
2022-09-02T16:33:28.323Z,66.48
2022-09-02T16:35:54.780Z,65.03
2022-09-02T16:38:21.263Z,64.85
2022-09-02T16:40:55.062Z,66.20
2022-09-02T16:43:22.056Z,65.14
2022-09-02T16:45:52.287Z,65.13
2022-09-02T16:48:25.090Z,67.21
2022-09-02T16:50:52.343Z,67.37
2022-09-02T16:53:19.146Z,67.30
2022-09-02T16:55:46.969Z,67.91
2022-09-02T16:58:14.312Z,66.72
2022-09-02T17:00:41.657Z,67.91
2022-09-02T17:03:10.199Z,67.61
2022-09-02T17:05:36.647Z,69.45
2022-09-02T17:08:03.358Z,69.84
2022-09-02T17:10:30.617Z,69.00
2022-09-02T17:12:57.692Z,70.20
2022-09-02T17:15:24.938Z,70.46
2022-09-02T17:17:51.828Z,70.81
2022-09-02T17:20:18.494Z,71.36
2022-09-02T17:22:45.179Z,72.00
2022-09-02T17:25:11.765Z,72.58
2022-09-02T17:27:38.841Z,71.95
2022-09-02T17:30:06.189Z,72.47
2022-09-02T17:32:35.897Z,73.22
2022-09-02T17:35:02.349Z,74.67
2022-09-02T17:37:28.829Z,74.96
2022-09-02T17:39:55.362Z,77.38
2022-09-02T17:42:21.870Z,75.37
2022-09-02T17:44:48.715Z,74.98
2022-09-02T17:47:20.294Z,75.71
2022-09-02T17:49:47.656Z,75.12
2022-09-02T17:52:15.482Z,76.00
2022-09-02T17:54:42.490Z,77.42
2022-09-02T17:57:23.720Z,77.47
2022-09-02T18:00:01.993Z,77.10
2022-09-02T18:02:28.449Z,77.51
2022-09-02T18:05:14.288Z,78.06
2022-09-02T18:07:50.930Z,78.60
2022-09-02T18:10:17.552Z,78.34
2022-09-02T18:12:44.107Z,79.49
2022-09-02T18:15:13.380Z,80.32
2022-09-02T18:17:50.114Z,82.10
2022-09-02T18:20:19.787Z,81.66
2022-09-02T18:22:49.331Z,82.12
2022-09-02T18:25:23.973Z,82.58
2022-09-02T18:27:59.319Z,83.40
2022-09-02T18:30:49.072Z,84.12
2022-09-02T18:33:39.172Z,84.51
2022-09-02T18:36:11.910Z,88.17
2022-09-02T18:38:41.636Z,88.05
2022-09-02T18:41:22.185Z,85.63
2022-09-02T18:44:07.753Z,88.80
2022-09-02T18:46:45.378Z,87.96
2022-09-02T18:49:14.089Z,89.79
2022-09-02T18:51:42.049Z,88.13
2022-09-02T18:54:22.391Z,87.83
2022-09-02T18:56:51.436Z,88.00
2022-09-02T18:59:22.353Z,87.18
2022-09-02T19:01:56.435Z,88.58
2022-09-02T19:04:29.251Z,89.13
2022-09-02T19:07:16.567Z,89.30
2022-09-02T19:09:43.345Z,89.83
2022-09-02T19:12:10.848Z,90.96
2022-09-02T19:14:40.083Z,90.10
2022-09-02T19:17:06.524Z,90.21
2022-09-02T19:19:35.202Z,90.46
2022-09-02T19:22:11.286Z,90.43
2022-09-02T19:24:43.714Z,91.48
2022-09-02T19:27:15.335Z,91.15
2022-09-02T19:29:44.532Z,92.83
2022-09-02T19:32:12.448Z,92.45
2022-09-02T19:34:41.089Z,92.69
2022-09-02T19:37:08.130Z,94.68
2022-09-02T19:39:34.964Z,94.76
2022-09-02T19:42:01.534Z,95.10
2022-09-02T19:44:28.422Z,95.40
2022-09-02T19:47:42.285Z,95.90
2022-09-02T19:49:41.751Z,95.89
2022-09-02T19:52:08.726Z,96.69
2022-09-02T19:54:35.201Z,96.73
2022-09-02T19:57:02.794Z,96.83
2022-09-02T19:59:29.336Z,98.48
2022-09-02T20:01:57.128Z,98.21
2022-09-02T20:04:23.894Z,98.62
2022-09-02T20:06:51.218Z,100.00
2022-09-02T20:09:17.727Z,99.73
2022-09-02T20:11:44.223Z,100.00
2022-09-02T20:14:10.791Z,100.00
2022-09-02T20:16:37.394Z,100.00
2022-09-02T20:19:04.150Z,100.00
2022-09-02T20:21:31.488Z,100.00
2022-09-02T20:24:06.965Z,100.00
2022-09-02T20:27:05.885Z,100.00
2022-09-02T20:29:50.780Z,100.00
2022-09-02T20:32:17.216Z,100.00
2022-09-02T20:34:43.637Z,100.00
2022-09-02T20:37:10.651Z,100.00
2022-09-02T20:39:44.679Z,100.00
2022-09-02T20:42:30.867Z,100.00
2022-09-02T20:45:17.534Z,100.00
2022-09-02T20:48:02.662Z,100.00
2022-09-02T20:50:49.418Z,100.00
2022-09-02T20:53:18.856Z,100.00
2022-09-02T20:55:47.785Z,100.00
2022-09-02T20:58:30.740Z,100.00
2022-09-02T21:00:58.816Z,100.00
2022-09-02T21:03:25.900Z,100.00
2022-09-02T21:05:56.158Z,100.00
2022-09-02T21:08:24.831Z,100.00
2022-09-02T21:11:00.031Z,100.00
2022-09-02T21:13:45.407Z,100.00
2022-09-02T21:16:21.088Z,100.00
2022-09-02T21:18:56.595Z,100.00
2022-09-02T21:21:23.091Z,100.00
2022-09-02T21:24:01.934Z,100.00
2022-09-02T21:26:49.235Z,100.00
2022-09-02T21:29:18.696Z,100.00
2022-09-02T21:31:59.585Z,100.00
2022-09-02T21:34:37.869Z,100.00
2022-09-02T21:37:05.298Z,100.00
2022-09-02T21:39:34.849Z,100.00
2022-09-02T21:42:24.447Z,100.00
2022-09-02T21:45:09.814Z,100.00
2022-09-02T21:47:56.812Z,100.00
2022-09-02T21:50:46.652Z,100.00
2022-09-02T21:53:23.176Z,100.00
2022-09-02T21:56:07.161Z,100.00
2022-09-02T21:58:34.311Z,100.00
2022-09-02T22:01:13.998Z,100.00
2022-09-02T22:03:41.440Z,100.00
2022-09-02T22:06:11.241Z,100.00
2022-09-02T22:08:44.617Z,100.00
2022-09-02T22:11:17.236Z,100.00
2022-09-02T22:13:43.900Z,100.00
2022-09-02T22:16:17.076Z,100.00
2022-09-02T22:18:55.355Z,100.00
2022-09-02T22:21:27.816Z,100.00
2022-09-02T22:23:57.267Z,100.00
2022-09-02T22:26:30.217Z,100.00
2022-09-02T22:29:01.261Z,100.00
2022-09-02T22:31:28.360Z,100.00
2022-09-02T22:33:55.990Z,100.00
2022-09-02T22:36:35.115Z,100.00
2022-09-02T22:39:02.153Z,100.00
2022-09-02T22:41:34.415Z,100.00
2022-09-02T22:44:09.570Z,100.00
2022-09-02T22:46:54.881Z,100.00
2022-09-02T22:49:51.434Z,100.00
2022-09-02T22:52:46.246Z,100.00
2022-09-02T22:55:13.936Z,100.00
2022-09-02T22:57:49.831Z,100.00
2022-09-02T23:00:17.257Z,100.00
2022-09-02T23:02:49.867Z,100.00
2022-09-02T23:05:36.242Z,100.00
2022-09-02T23:08:03.386Z,100.00
2022-09-02T23:10:29.820Z,100.00
2022-09-02T23:13:02.009Z,100.00
2022-09-02T23:15:44.901Z,100.00
2022-09-02T23:18:29.683Z,100.00
2022-09-02T23:21:02.240Z,100.00
2022-09-02T23:23:29.482Z,100.00
2022-09-02T23:25:55.914Z,100.00
2022-09-02T23:28:40.809Z,100.00
2022-09-02T23:31:21.982Z,100.00
2022-09-02T23:34:04.408Z,100.00
2022-09-02T23:36:37.867Z,100.00
2022-09-02T23:39:07.127Z,100.00
2022-09-02T23:41:36.310Z,100.00
2022-09-02T23:44:05.037Z,100.00
2022-09-02T23:46:34.919Z,100.00
2022-09-02T23:49:22.849Z,100.00
2022-09-02T23:51:52.493Z,100.00
2022-09-02T23:54:32.446Z,100.00
2022-09-02T23:57:01.673Z,100.00
2022-09-02T23:59:43.491Z,100.00
